Back to Top

Language: 

My Weather Underground Personal Weather Station Historical Data with Graphs...

Delerius Weather Station Historical Data
Daily Summary for January 1, 2018 Units:  Metric    English   Both
« Previous Day
Next Day »
Daily Weekly Monthly Yearly Custom
  High: Low: Average:
Temperature: 7.8 °C 5 °C 5.9 °C
Dew Point: 4.8 °C 1.9 °C 3.4 °C
Humidity: 93 % 77 % 84 %
Wind Speed: 30.6 km/h 0 km/h 15.6 km/h
Wind Gust: 46.7 km/h - -
Wind:- - WSW
Pressure: 1005 hPa 990.4 hPa -
Precipitation: 1.78 mm    
Historical Graphs
 
 
Tabular Data for January 1, 2018
Time Temperature Dew Point Pressure Wind Wind Speed Wind Gust Humidity Rainfall Rate (Hourly) solar Conditions
00:01 5.4 °C 3.2 °C 990.4 hPa West 22.5 km/h 40.2 km/h 86 % 0 mm 0 W/m2
00:06 5.3 °C 3.2 °C 990.7 hPa West 24.1 km/h 40.2 km/h 86 % 0 mm 0 W/m2
00:11 5.4 °C 3.2 °C 990.7 hPa West 22.5 km/h 35.4 km/h 86 % 0 mm 0 W/m2
00:12 5.4 °C 3.2 °C 990.7 hPa West 22.5 km/h 33.8 km/h 86 % 0 mm 0 W/m2
00:16 5.4 °C 3.2 °C 990.7 hPa West 24.1 km/h 37 km/h 86 % 0 mm 0 W/m2
00:19 5.4 °C 3.2 °C 990.7 hPa West 19.3 km/h 30.6 km/h 86 % 0 mm 0 W/m2
00:24 5.4 °C 3.2 °C 990.7 hPa West 22.5 km/h 35.4 km/h 86 % 0 mm 0 W/m2
00:25 5.4 °C 3.2 °C 990.7 hPa West 22.5 km/h 33.8 km/h 86 % 0 mm 0 W/m2
00:30 5.4 °C 3.2 °C 990.7 hPa WSW 22.5 km/h 38.6 km/h 86 % 0 mm 0 W/m2
00:31 5.4 °C 3.2 °C 990.7 hPa WSW 24.1 km/h 38.6 km/h 86 % 0 mm 0 W/m2
00:36 5.4 °C 3.2 °C 990.7 hPa West 17.7 km/h 29 km/h 86 % 0 mm 0 W/m2
00:38 5.4 °C 3.2 °C 990.7 hPa West 17.7 km/h 29 km/h 86 % 0 mm 0 W/m2
00:41 5.4 °C 3.2 °C 991.1 hPa WSW 19.3 km/h 32.2 km/h 86 % 0 mm 0 W/m2
00:46 5.4 °C 3.2 °C 990.7 hPa West 20.9 km/h 37 km/h 86 % 0 mm 0 W/m2
00:47 5.4 °C 3.2 °C 991.1 hPa West 19.3 km/h 33.8 km/h 86 % 0 mm 0 W/m2
00:52 5.4 °C 3.2 °C 990.7 hPa West 17.7 km/h 29 km/h 86 % 0 mm 0 W/m2
00:55 5.4 °C 3.2 °C 991.1 hPa West 22.5 km/h 37 km/h 86 % 0 mm 0 W/m2
01:00 5.4 °C 3.1 °C 991.1 hPa WSW 19.3 km/h 33.8 km/h 85 % 0 mm 0 W/m2
01:02 5.4 °C 3.1 °C 991.1 hPa WSW 16.1 km/h 22.5 km/h 85 % 0 mm 0 W/m2
01:07 5.3 °C 2.8 °C 991.1 hPa WSW 16.1 km/h 25.7 km/h 84 % 0 mm 0 W/m2
01:12 5.3 °C 2.8 °C 991.1 hPa WSW 17.7 km/h 29 km/h 84 % 0 mm 0 W/m2
01:15 5.2 °C 2.6 °C 991.1 hPa WSW 14.5 km/h 24.1 km/h 83 % 0 mm 0 W/m2
01:20 5.2 °C 2.6 °C 991.1 hPa WSW 19.3 km/h 30.6 km/h 83 % 0 mm 0 W/m2
01:21 5.2 °C 2.6 °C 991.1 hPa WSW 19.3 km/h 30.6 km/h 83 % 0 mm 0 W/m2
01:26 5.2 °C 2.4 °C 991.1 hPa WSW 22.5 km/h 37 km/h 82 % 0 mm 0 W/m2
01:28 5.2 °C 2.4 °C 991.1 hPa WSW 17.7 km/h 32.2 km/h 82 % 0 mm 0 W/m2
01:33 5.1 °C 2.3 °C 990.7 hPa WSW 22.5 km/h 30.6 km/h 82 % 0 mm 0 W/m2
01:38 5.2 °C 2.4 °C 991.1 hPa WSW 17.7 km/h 30.6 km/h 82 % 0 mm 0 W/m2
01:39 5.2 °C 2.4 °C 991.1 hPa WSW 19.3 km/h 37 km/h 82 % 0 mm 0 W/m2
01:44 5.2 °C 2.4 °C 991.1 hPa WSW 14.5 km/h 25.7 km/h 82 % 0 mm 0 W/m2
01:48 5.1 °C 2.3 °C 991.1 hPa WSW 16.1 km/h 30.6 km/h 82 % 0 mm 0 W/m2
01:51 5.2 °C 2.4 °C 990.7 hPa WSW 16.1 km/h 24.1 km/h 82 % 0 mm 0 W/m2
01:55 5.1 °C 2.3 °C 990.7 hPa WSW 16.1 km/h 25.7 km/h 82 % 0 mm 0 W/m2
02:00 5.1 °C 2.3 °C 990.7 hPa WSW 16.1 km/h 29 km/h 82 % 0 mm 0 W/m2
02:03 5.1 °C 2.3 °C 991.1 hPa WSW 20.9 km/h 37 km/h 82 % 0 mm 0 W/m2
02:05 5.2 °C 2.4 °C 991.1 hPa WSW 17.7 km/h 25.7 km/h 82 % 0 mm 0 W/m2
02:09 5.2 °C 2.4 °C 991.1 hPa WSW 19.3 km/h 32.2 km/h 82 % 0 mm 0 W/m2
02:14 5.3 °C 2.3 °C 991.1 hPa WSW 24.1 km/h 40.2 km/h 81 % 0 mm 0 W/m2
02:19 5.3 °C 2.3 °C 991.1 hPa WSW 20.9 km/h 35.4 km/h 81 % 0 mm 0 W/m2
02:20 5.4 °C 2.4 °C 991.1 hPa WSW 25.7 km/h 46.7 km/h 81 % 0 mm 0 W/m2
02:25 5.4 °C 2.4 °C 991.1 hPa WSW 22.5 km/h 38.6 km/h 81 % 0 mm 0 W/m2
02:27 5.4 °C 2.4 °C 991.1 hPa WSW 19.3 km/h 30.6 km/h 81 % 0 mm 0 W/m2
02:31 5.4 °C 2.4 °C 991.1 hPa WSW 22.5 km/h 41.8 km/h 81 % 0 mm 0 W/m2
02:33 5.3 °C 2.3 °C 991.1 hPa WSW 19.3 km/h 37 km/h 81 % 0 mm 0 W/m2
02:37 5.4 °C 2.4 °C 991.1 hPa WSW 24.1 km/h 37 km/h 81 % 0 mm 0 W/m2
02:39 5.4 °C 2.4 °C 991.1 hPa WSW 24.1 km/h 37 km/h 81 % 0 mm 0 W/m2
02:44 5.4 °C 2.4 °C 991.1 hPa WSW 22.5 km/h 33.8 km/h 81 % 0 mm 0 W/m2
02:46 5.4 °C 2.4 °C 991.1 hPa WSW 20.9 km/h 30.6 km/h 81 % 0 mm 0 W/m2
02:51 5.4 °C 2.4 °C 991.1 hPa WSW 19.3 km/h 29 km/h 81 % 0 mm 0 W/m2
02:53 5.3 °C 2.3 °C 991.1 hPa WSW 19.3 km/h 29 km/h 81 % 0 mm 0 W/m2
02:58 5.3 °C 2.3 °C 991.1 hPa SW 20.9 km/h 32.2 km/h 81 % 0 mm 0 W/m2
02:59 5.3 °C 2.3 °C 991.1 hPa SW 20.9 km/h 32.2 km/h 81 % 0 mm 0 W/m2
03:04 5.3 °C 2.3 °C 991.1 hPa SW 20.9 km/h 30.6 km/h 81 % 0 mm 0 W/m2
03:05 5.3 °C 2.3 °C 991.1 hPa SW 19.3 km/h 30.6 km/h 81 % 0 mm 0 W/m2
03:10 5.3 °C 2.1 °C 991.1 hPa SW 22.5 km/h 38.6 km/h 80 % 0 mm 0 W/m2
03:15 5.4 °C 2.2 °C 991.1 hPa SW 17.7 km/h 30.6 km/h 80 % 0 mm 0 W/m2
03:17 5.3 °C 2.1 °C 991.1 hPa SW 16.1 km/h 22.5 km/h 80 % 0 mm 0 W/m2
03:22 5.4 °C 2.1 °C 991.1 hPa SSW 16.1 km/h 24.1 km/h 79 % 0 mm 0 W/m2
03:25 5.3 °C 1.9 °C 991.1 hPa SSW 19.3 km/h 32.2 km/h 79 % 0 mm 0 W/m2
03:30 5.3 °C 2.1 °C 991.1 hPa SW 19.3 km/h 35.4 km/h 80 % 0 mm 0 W/m2
03:35 5.2 °C 2.1 °C 991.1 hPa SW 12.9 km/h 22.5 km/h 80 % 0 mm 0 W/m2
03:36 5.2 °C 2.1 °C 991.1 hPa SW 14.5 km/h 25.7 km/h 80 % 0 mm 0 W/m2
03:41 5.1 °C 1.9 °C 991.1 hPa SW 14.5 km/h 19.3 km/h 80 % 0 mm 0 W/m2
03:42 5.1 °C 1.9 °C 991.4 hPa SW 16.1 km/h 25.7 km/h 80 % 0 mm 0 W/m2
03:48 5.1 °C 1.9 °C 991.1 hPa WSW 17.7 km/h 25.7 km/h 80 % 0 mm 0 W/m2
03:53 5.1 °C 2.1 °C 991.4 hPa SW 12.9 km/h 20.9 km/h 81 % 0 mm 0 W/m2
03:56 5 °C 2 °C 991.1 hPa WSW 16.1 km/h 24.1 km/h 81 % 0 mm 0 W/m2
04:01 5.1 °C 2.1 °C 991.1 hPa SW 14.5 km/h 25.7 km/h 81 % 0 mm 0 W/m2
04:03 5.1 °C 2.1 °C 991.1 hPa SW 12.9 km/h 19.3 km/h 81 % 0 mm 0 W/m2
04:06 5.1 °C 2.1 °C 991.1 hPa WSW 12.9 km/h 22.5 km/h 81 % 0 mm 0 W/m2
04:08 5.1 °C 2.1 °C 991.1 hPa WSW 11.3 km/h 22.5 km/h 81 % 0 mm 0 W/m2
04:13 5.1 °C 2.1 °C 990.7 hPa WSW 19.3 km/h 33.8 km/h 81 % 0 mm 0 W/m2
04:14 5.1 °C 2.1 °C 990.7 hPa WSW 19.3 km/h 33.8 km/h 81 % 0 mm 0 W/m2
04:19 5.2 °C 2.2 °C 991.1 hPa WSW 11.3 km/h 20.9 km/h 81 % 0 mm 0 W/m2
04:21 5.2 °C 2.2 °C 991.1 hPa WSW 19.3 km/h 30.6 km/h 81 % 0 mm 0 W/m2
04:26 5.3 °C 2.3 °C 991.1 hPa WSW 16.1 km/h 22.5 km/h 81 % 0 mm 0 W/m2
04:27 5.3 °C 2.3 °C 991.1 hPa WSW 16.1 km/h 29 km/h 81 % 0 mm 0 W/m2
04:29 5.4 °C 2.4 °C 991.1 hPa WSW 19.3 km/h 32.2 km/h 81 % 0 mm 0 W/m2
04:33 5.6 °C 2.6 °C 991.1 hPa WSW 19.3 km/h 33.8 km/h 81 % 0 mm 0 W/m2
04:37 5.7 °C 2.5 °C 991.1 hPa WSW 19.3 km/h 30.6 km/h 80 % 0 mm 0 W/m2
04:38 5.7 °C 2.5 °C 991.1 hPa WSW 17.7 km/h 30.6 km/h 80 % 0 mm 0 W/m2
04:40 5.7 °C 2.5 °C 991.1 hPa WSW 19.3 km/h 38.6 km/h 80 % 0 mm 0 W/m2
04:45 5.8 °C 2.6 °C 991.1 hPa WSW 20.9 km/h 32.2 km/h 80 % 0 mm 0 W/m2
04:50 5.9 °C 2.7 °C 990.7 hPa WSW 17.7 km/h 30.6 km/h 80 % 0 mm 0 W/m2
04:55 6 °C 2.8 °C 990.7 hPa WSW 20.9 km/h 35.4 km/h 80 % 0 mm 0 W/m2
04:57 6 °C 2.8 °C 990.7 hPa WSW 17.7 km/h 32.2 km/h 80 % 0 mm 0 W/m2
04:58 6 °C 2.8 °C 990.7 hPa WSW 17.7 km/h 32.2 km/h 80 % 0 mm 0 W/m2
05:03 6.1 °C 2.9 °C 990.7 hPa WSW 19.3 km/h 32.2 km/h 80 % 0 mm 0 W/m2
05:08 6.1 °C 2.9 °C 990.7 hPa WSW 16.1 km/h 24.1 km/h 80 % 0 mm 0 W/m2
05:09 6.1 °C 2.9 °C 990.7 hPa WSW 19.3 km/h 32.2 km/h 80 % 0 mm 0 W/m2
05:10 6.1 °C 3.1 °C 990.7 hPa WSW 20.9 km/h 32.2 km/h 81 % 0 mm 0 W/m2
05:15 6.1 °C 3.1 °C 990.7 hPa SW 17.7 km/h 25.7 km/h 81 % 0 mm 0 W/m2
05:17 6.1 °C 3.1 °C 990.7 hPa WSW 20.9 km/h 32.2 km/h 81 % 0 mm 0 W/m2
05:21 6.1 °C 3.1 °C 990.7 hPa WSW 17.7 km/h 25.7 km/h 81 % 0 mm 0 W/m2
05:25 6.1 °C 3.1 °C 991.1 hPa WSW 20.9 km/h 37 km/h 81 % 0 mm 0 W/m2
05:30 6.1 °C 3.1 °C 991.1 hPa WSW 20.9 km/h 33.8 km/h 81 % 0 mm 0 W/m2
05:34 6.1 °C 3.1 °C 991.1 hPa WSW 17.7 km/h 30.6 km/h 81 % 0 mm 0 W/m2
05:37 6.1 °C 3.1 °C 991.1 hPa WSW 17.7 km/h 29 km/h 81 % 0 mm 0 W/m2
05:42 6 °C 3 °C 990.7 hPa WSW 20.9 km/h 32.2 km/h 81 % 0 mm 0 W/m2
05:44 6 °C 3 °C 991.1 hPa WSW 22.5 km/h 35.4 km/h 81 % 0 mm 0 W/m2
05:46 6 °C 3 °C 990.7 hPa WSW 20.9 km/h 40.2 km/h 81 % 0 mm 0 W/m2
05:51 6 °C 3.2 °C 991.1 hPa WSW 24.1 km/h 35.4 km/h 82 % 0 mm 0 W/m2
05:56 6 °C 3.2 °C 990.7 hPa WSW 20.9 km/h 35.4 km/h 82 % 0 mm 0 W/m2
05:57 6 °C 3.2 °C 990.7 hPa WSW 20.9 km/h 35.4 km/h 82 % 0 mm 0 W/m2
06:03 6 °C 3.2 °C 991.1 hPa WSW 24.1 km/h 38.6 km/h 82 % 0 mm 0 W/m2
06:05 6 °C 3.2 °C 991.1 hPa WSW 19.3 km/h 35.4 km/h 82 % 0 mm 0 W/m2
06:10 6.1 °C 3.1 °C 991.1 hPa WSW 22.5 km/h 35.4 km/h 81 % 0 mm 0 W/m2
06:11 6.1 °C 3.1 °C 991.1 hPa WSW 25.7 km/h 40.2 km/h 81 % 0 mm 0 W/m2
06:16 6.2 °C 3.2 °C 991.1 hPa WSW 20.9 km/h 32.2 km/h 81 % 0 mm 0 W/m2
06:17 6.2 °C 3.2 °C 991.1 hPa WSW 19.3 km/h 30.6 km/h 81 % 0 mm 0 W/m2
06:22 6.2 °C 3.2 °C 991.1 hPa WSW 20.9 km/h 32.2 km/h 81 % 0 mm 0 W/m2
06:24 6.2 °C 3.2 °C 991.1 hPa WSW 14.5 km/h 24.1 km/h 81 % 0 mm 0 W/m2
06:25 6.2 °C 3.2 °C 991.1 hPa WSW 14.5 km/h 24.1 km/h 81 % 0 mm 0 W/m2
06:30 6.2 °C 3.2 °C 991.1 hPa WSW 19.3 km/h 32.2 km/h 81 % 0 mm 0 W/m2
06:31 6.2 °C 3.2 °C 991.1 hPa WSW 22.5 km/h 32.2 km/h 81 % 0 mm 0 W/m2
06:32 6.2 °C 3.2 °C 991.1 hPa WSW 22.5 km/h 32.2 km/h 81 % 0 mm 0 W/m2
06:37 6.2 °C 3.2 °C 990.7 hPa WSW 19.3 km/h 29 km/h 81 % 0 mm 0 W/m2
06:40 6.2 °C 3.2 °C 991.1 hPa WSW 19.3 km/h 33.8 km/h 81 % 0 mm 0 W/m2
06:43 6.2 °C 3.2 °C 991.1 hPa WSW 19.3 km/h 35.4 km/h 81 % 0 mm 0 W/m2
06:46 6.2 °C 3.2 °C 991.1 hPa WSW 17.7 km/h 25.7 km/h 81 % 0 mm 0 W/m2
06:51 6.2 °C 3.2 °C 991.1 hPa WSW 16.1 km/h 32.2 km/h 81 % 0 mm 0 W/m2
06:52 6.2 °C 3 °C 991.1 hPa WSW 9.7 km/h 16.1 km/h 80 % 0 mm 0 W/m2
06:56 6.2 °C 3.2 °C 991.1 hPa WSW 14.5 km/h 25.7 km/h 81 % 0 mm 0 W/m2
06:59 6.2 °C 3.2 °C 991.1 hPa SSW 8 km/h 12.9 km/h 81 % 0 mm 0 W/m2
07:03 6.2 °C 3.2 °C 991.1 hPa SW 8 km/h 16.1 km/h 81 % 0 mm 0 W/m2
07:06 6.1 °C 3.1 °C 991.4 hPa SSE 3.2 km/h 9.7 km/h 81 % 0 mm 0 W/m2
07:11 6.1 °C 3.1 °C 991.4 hPa SSW 4.8 km/h 12.9 km/h 81 % 0 mm 0 W/m2
07:12 6.1 °C 3.1 °C 991.4 hPa SSW 3.2 km/h 9.7 km/h 81 % 0 mm 0 W/m2
07:16 6.1 °C 3.1 °C 991.4 hPa ESE 1.6 km/h 8 km/h 81 % 0 mm 0 W/m2
07:18 6.1 °C 2.9 °C 991.1 hPa WNW 4.8 km/h 12.9 km/h 80 % 0 mm 0 W/m2
07:22 6 °C 3 °C 991.4 hPa SSW 8 km/h 24.1 km/h 81 % 0 mm 0 W/m2
07:23 6.1 °C 3.1 °C 991.4 hPa SSW 9.7 km/h 24.1 km/h 81 % 0 mm 0 W/m2
07:28 6.1 °C 2.9 °C 991.4 hPa SSE 1.6 km/h 6.4 km/h 80 % 0 mm 0 W/m2
07:29 6.1 °C 2.9 °C 991.4 hPa SSE 3.2 km/h 6.4 km/h 80 % 0 mm 0 W/m2
07:34 6 °C 2.8 °C 991.4 hPa SSE 1.6 km/h 6.4 km/h 80 % 0 mm 0 W/m2
07:37 6 °C 3 °C 991.4 hPa SSE 4.8 km/h 9.7 km/h 81 % 0 mm 0 W/m2
07:40 5.9 °C 2.9 °C 991.1 hPa SSE 4.8 km/h 9.7 km/h 81 % 0 mm 0 W/m2
07:43 5.9 °C 3.1 °C 991.4 hPa SE 4.8 km/h 9.7 km/h 82 % 0 mm 0 W/m2
07:46 5.8 °C 2.9 °C 991.4 hPa SE 6.4 km/h 11.3 km/h 82 % 0 mm 0 W/m2
07:51 5.7 °C 3.1 °C 991.4 hPa SSW 1.6 km/h 9.7 km/h 83 % 0 mm 0 W/m2
07:52 5.7 °C 3.1 °C 991.4 hPa SSW 3.2 km/h 9.7 km/h 83 % 0 mm 0 W/m2
07:55 5.7 °C 3.1 °C 991.4 hPa South 4.8 km/h 8 km/h 83 % 0 mm 0 W/m2
07:58 5.7 °C 3.1 °C 991.4 hPa SE 9.7 km/h 14.5 km/h 83 % 0 mm 0 W/m2
08:01 5.7 °C 3.1 °C 991.4 hPa South 4.8 km/h 16.1 km/h 83 % 0 mm 0 W/m2
08:06 5.7 °C 3.1 °C 991.4 hPa SSW 1.6 km/h 8 km/h 83 % 0 mm 0 W/m2
08:07 5.7 °C 3.1 °C 991.4 hPa Calm   1.6 km/h 83 % 0 mm 0 W/m2
08:09 5.7 °C 3.1 °C 991.4 hPa ESE 1.6 km/h 8 km/h 83 % 0 mm 0 W/m2
08:13 5.7 °C 3.1 °C 991.4 hPa East 3.2 km/h 9.7 km/h 83 % 0 mm 0 W/m2
08:18 5.7 °C 3.1 °C 991.4 hPa SSE 4.8 km/h 11.3 km/h 83 % 0 mm 0 W/m2
08:20 5.7 °C 3.1 °C 991.4 hPa SSE 4.8 km/h 9.7 km/h 83 % 0 mm 0 W/m2
08:25 5.8 °C 3.1 °C 991.4 hPa ESE 3.2 km/h 8 km/h 83 % 0 mm 5 W/m2
08:30 5.9 °C 3.1 °C 991.4 hPa SE 1.6 km/h 8 km/h 82 % 0 mm 7 W/m2
08:36 5.9 °C 3.1 °C 991.4 hPa SE 3.2 km/h 8 km/h 82 % 0 mm 9 W/m2
08:41 5.9 °C 2.9 °C 991.4 hPa South 1.6 km/h 9.7 km/h 81 % 0 mm 11 W/m2
08:46 5.9 °C 2.9 °C 991.4 hPa South 3.2 km/h 8 km/h 81 % 0 mm 14 W/m2
08:47 5.8 °C 2.8 °C 991.4 hPa South 3.2 km/h 8 km/h 81 % 0 mm 14 W/m2
08:52 5.8 °C 2.8 °C 991.4 hPa SW 3.2 km/h 8 km/h 81 % 0 mm 19 W/m2
08:57 5.7 °C 2.7 °C 991.4 hPa SW 1.6 km/h 3.2 km/h 81 % 0 mm 25 W/m2
09:01 5.6 °C 2.6 °C 991.4 hPa SW 1.6 km/h 4.8 km/h 81 % 0 mm 26 W/m2
09:03 5.6 °C 2.8 °C 991.4 hPa SW 1.6 km/h 4.8 km/h 82 % 0 mm 28 W/m2
09:07 5.5 °C 2.7 °C 991.4 hPa SW 8 km/h 12.9 km/h 82 % 0 mm 33 W/m2
09:09 5.5 °C 2.7 °C 991.4 hPa SW 6.4 km/h 9.7 km/h 82 % 0 mm 37 W/m2
09:14 5.5 °C 2.8 °C 991.4 hPa SW 9.7 km/h 12.9 km/h 83 % 0 mm 53 W/m2
09:16 5.5 °C 2.8 °C 991.4 hPa WSW 11.3 km/h 14.5 km/h 83 % 0 mm 58 W/m2
09:21 5.5 °C 2.8 °C 991.8 hPa WSW 8 km/h 14.5 km/h 83 % 0 mm 58 W/m2
09:24 5.5 °C 2.8 °C 991.8 hPa WSW 9.7 km/h 16.1 km/h 83 % 0 mm 56 W/m2
09:26 5.5 °C 2.8 °C 991.8 hPa WSW 11.3 km/h 17.7 km/h 83 % 0 mm 56 W/m2
09:31 5.6 °C 2.9 °C 991.8 hPa WSW 12.9 km/h 19.3 km/h 83 % 0 mm 56 W/m2
09:35 5.8 °C 3.1 °C 991.8 hPa WSW 11.3 km/h 17.7 km/h 83 % 0 mm 46 W/m2
09:40 5.9 °C 3.1 °C 991.8 hPa WSW 11.3 km/h 17.7 km/h 82 % 0 mm 35 W/m2
09:43 5.9 °C 3.1 °C 991.8 hPa WSW 11.3 km/h 19.3 km/h 82 % 0 mm 30 W/m2
09:48 6.1 °C 3.3 °C 992.1 hPa West 11.3 km/h 14.5 km/h 82 % 0 mm 28 W/m2
09:52 6.1 °C 3.1 °C 992.1 hPa West 11.3 km/h 17.7 km/h 81 % 0 mm 35 W/m2
09:57 6.2 °C 3.2 °C 991.8 hPa WSW 11.3 km/h 16.1 km/h 81 % 0 mm 49 W/m2
09:58 6.2 °C 3.2 °C 992.1 hPa WSW 11.3 km/h 14.5 km/h 81 % 0 mm 53 W/m2
09:59 6.2 °C 3.2 °C 992.1 hPa WSW 11.3 km/h 14.5 km/h 81 % 0 mm 53 W/m2
10:04 6.1 °C 3.1 °C 992.1 hPa WSW 12.9 km/h 19.3 km/h 81 % 0 mm 44 W/m2
10:09 6.1 °C 3.3 °C 992.1 hPa SW 14.5 km/h 19.3 km/h 82 % 0 mm 39 W/m2
10:13 6.1 °C 3.3 °C 992.1 hPa WSW 14.5 km/h 19.3 km/h 82 % 0 mm 39 W/m2
10:18 6.1 °C 3.3 °C 992.1 hPa SW 16.1 km/h 24.1 km/h 82 % 0 mm 54 W/m2
10:20 6.1 °C 3.3 °C 992.1 hPa WSW 14.5 km/h 20.9 km/h 82 % 0 mm 54 W/m2
10:21 6.1 °C 3.3 °C 992.1 hPa WSW 14.5 km/h 20.9 km/h 82 % 0 mm 51 W/m2
10:26 6.2 °C 3.3 °C 992.1 hPa SW 12.9 km/h 17.7 km/h 82 % 0 mm 47 W/m2
10:31 6.2 °C 3.3 °C 992.1 hPa SW 12.9 km/h 19.3 km/h 82 % 0 mm 54 W/m2
10:35 6.1 °C 3.4 °C 992.1 hPa SW 12.9 km/h 19.3 km/h 83 % 0 mm 53 W/m2
10:38 6.1 °C 3.4 °C 992.1 hPa SW 12.9 km/h 17.7 km/h 83 % 0 mm 53 W/m2
10:41 6.1 °C 3.4 °C 992.1 hPa SW 9.7 km/h 14.5 km/h 83 % 0 mm 51 W/m2
10:45 6.1 °C 3.4 °C 992.1 hPa SW 9.7 km/h 14.5 km/h 83 % 0 mm 49 W/m2
10:46 6.1 °C 3.4 °C 992.1 hPa SW 9.7 km/h 16.1 km/h 83 % 0 mm 51 W/m2
10:50 6.1 °C 3.4 °C 992.1 hPa WSW 8 km/h 12.9 km/h 83 % 0 mm 53 W/m2
10:51 6.1 °C 3.4 °C 992.1 hPa WSW 8 km/h 11.3 km/h 83 % 0 mm 54 W/m2
10:55 6.1 °C 3.4 °C 992.1 hPa SW 4.8 km/h 14.5 km/h 83 % 0 mm 58 W/m2
10:59 6.1 °C 3.4 °C 992.1 hPa SW 1.6 km/h 9.7 km/h 83 % 0 mm 58 W/m2
11:03 6.1 °C 3.4 °C 992.1 hPa WSW 3.2 km/h 8 km/h 83 % 0 mm 54 W/m2
11:08 6.1 °C 3.6 °C 992.1 hPa West 1.6 km/h 6.4 km/h 84 % 0 mm 62 W/m2
11:10 6.1 °C 3.6 °C 992.1 hPa West 1.6 km/h 6.4 km/h 84 % 0 mm 63 W/m2
11:13 6.1 °C 3.6 °C 992.1 hPa Calm   3.2 km/h 84 % 0 mm 65 W/m2
11:16 6.1 °C 3.6 °C 992.1 hPa ENE 3.2 km/h 8 km/h 84 % 0 mm 65 W/m2
11:22 6 °C 3.5 °C 992.1 hPa East 1.6 km/h 6.4 km/h 84 % 0 mm 65 W/m2
11:26 5.9 °C 3.4 °C 992.1 hPa ENE 1.6 km/h 6.4 km/h 84 % 0 mm 65 W/m2
11:27 5.9 °C 3.4 °C 992.1 hPa ENE 3.2 km/h 6.4 km/h 84 % 0 mm 65 W/m2
11:32 5.8 °C 3.4 °C 992.1 hPa ESE 4.8 km/h 11.3 km/h 85 % 0 mm 65 W/m2
11:33 5.8 °C 3.4 °C 992.1 hPa ESE 4.8 km/h 11.3 km/h 85 % 0 mm 65 W/m2
11:37 5.8 °C 3.4 °C 992.1 hPa SSE 11.3 km/h 16.1 km/h 85 % 0 mm 63 W/m2
11:42 5.8 °C 3.4 °C 992.1 hPa South 4.8 km/h 12.9 km/h 85 % 0 mm 58 W/m2
11:47 5.8 °C 3.6 °C 992.1 hPa SSW 3.2 km/h 9.7 km/h 86 % 0 mm 56 W/m2
11:48 5.8 °C 3.4 °C 992.1 hPa South 1.6 km/h 8 km/h 85 % 0 mm 56 W/m2
11:53 5.8 °C 3.6 °C 992.1 hPa SSW 8 km/h 16.1 km/h 86 % 0 mm 63 W/m2
11:58 5.8 °C 3.6 °C 992.1 hPa SW 8 km/h 11.3 km/h 86 % 0 mm 70 W/m2
12:03 5.9 °C 3.7 °C 992.1 hPa SSW 8 km/h 16.1 km/h 86 % 0 mm 81 W/m2
12:05 5.9 °C 3.6 °C 992.1 hPa SSW 8 km/h 16.1 km/h 85 % 0 mm 83 W/m2
12:10 6 °C 3.7 °C 992.4 hPa SW 4.8 km/h 12.9 km/h 85 % 0 mm 88 W/m2
12:15 6 °C 3.7 °C 992.1 hPa SSW 6.4 km/h 16.1 km/h 85 % 0 mm 86 W/m2
12:20 6.2 °C 3.9 °C 992.1 hPa WSW 9.7 km/h 14.5 km/h 85 % 0 mm 86 W/m2
12:21 6.2 °C 3.9 °C 992.1 hPa WSW 6.4 km/h 12.9 km/h 85 % 0 mm 84 W/m2
12:24 6.2 °C 3.9 °C 992.4 hPa SW 6.4 km/h 9.7 km/h 85 % 0 mm 83 W/m2
12:26 6.3 °C 3.9 °C 992.4 hPa WSW 4.8 km/h 16.1 km/h 85 % 0 mm 83 W/m2
12:30 6.4 °C 3.9 °C 992.4 hPa WSW 9.7 km/h 16.1 km/h 84 % 0 mm 84 W/m2
12:35 6.5 °C 4 °C 992.4 hPa WSW 4.8 km/h 9.7 km/h 84 % 0 mm 91 W/m2
12:37 6.5 °C 4 °C 992.4 hPa WSW 6.4 km/h 14.5 km/h 84 % 0 mm 91 W/m2
12:38 6.6 °C 3.9 °C 992.4 hPa WSW 9.7 km/h 14.5 km/h 83 % 0 mm 91 W/m2
12:42 6.6 °C 3.9 °C 992.4 hPa WSW 11.3 km/h 19.3 km/h 83 % 0 mm 102 W/m2
12:44 6.7 °C 3.8 °C 992.4 hPa WSW 14.5 km/h 22.5 km/h 82 % 0 mm 109 W/m2
12:47 6.7 °C 3.8 °C 992.4 hPa WSW 11.3 km/h 25.7 km/h 82 % 0 mm 111 W/m2
12:52 6.8 °C 3.9 °C 992.4 hPa WSW 11.3 km/h 16.1 km/h 82 % 0 mm 104 W/m2
12:55 6.8 °C 3.9 °C 992.4 hPa WSW 14.5 km/h 24.1 km/h 82 % 0 mm 105 W/m2
13:00 6.8 °C 3.9 °C 992.4 hPa WSW 12.9 km/h 17.7 km/h 82 % 0 mm 165 W/m2
13:05 6.9 °C 4.1 °C 992.4 hPa SW 12.9 km/h 20.9 km/h 82 % 0 mm 285 W/m2
13:06 7 °C 4.1 °C 992.4 hPa WSW 11.3 km/h 17.7 km/h 82 % 0 mm 281 W/m2
13:08 7.1 °C 4.2 °C 992.4 hPa SW 8 km/h 14.5 km/h 82 % 0 mm 287 W/m2
13:13 7.3 °C 4.3 °C 992.4 hPa WSW 12.9 km/h 17.7 km/h 81 % 0 mm 162 W/m2
13:15 7.3 °C 4.3 °C 992.1 hPa WSW 12.9 km/h 19.3 km/h 81 % 0 mm 239 W/m2
13:21 7.4 °C 4.2 °C 992.1 hPa West 14.5 km/h 22.5 km/h 80 % 0 mm 69 W/m2
13:23 7.4 °C 4.2 °C 992.4 hPa WSW 11.3 km/h 19.3 km/h 80 % 0 mm 100 W/m2
13:28 7.3 °C 3.9 °C 992.1 hPa WSW 19.3 km/h 29 km/h 79 % 0 mm 49 W/m2
13:30 7.2 °C 4 °C 992.1 hPa WSW 17.7 km/h 29 km/h 80 % 0 mm 49 W/m2
13:35 7.1 °C 3.9 °C 992.4 hPa WSW 16.1 km/h 25.7 km/h 80 % 0 mm 53 W/m2
13:38 7 °C 3.9 °C 992.4 hPa WSW 14.5 km/h 22.5 km/h 81 % 0 mm 51 W/m2
13:43 6.9 °C 3.9 °C 992.4 hPa WSW 14.5 km/h 22.5 km/h 81 % 0 mm 63 W/m2
13:44 6.9 °C 3.9 °C 992.4 hPa WSW 12.9 km/h 19.3 km/h 81 % 0 mm 63 W/m2
13:49 6.9 °C 3.9 °C 992.4 hPa West 11.3 km/h 20.9 km/h 81 % 0 mm 77 W/m2
13:54 7.1 °C 4.2 °C 992.4 hPa WSW 14.5 km/h 25.7 km/h 82 % 0 mm 179 W/m2
13:55 7.2 °C 4.2 °C 992.4 hPa WSW 16.1 km/h 25.7 km/h 81 % 0 mm 167 W/m2
14:00 7.3 °C 4.1 °C 992.4 hPa West 16.1 km/h 22.5 km/h 80 % 0 mm 127 W/m2
14:05 7.5 °C 4.3 °C 992.4 hPa WSW 6.4 km/h 11.3 km/h 80 % 0 mm 160 W/m2
14:10 7.7 °C 4.3 °C 992.4 hPa WSW 6.4 km/h 11.3 km/h 79 % 0 mm 149 W/m2
14:11 7.7 °C 4.3 °C 992.4 hPa WSW 6.4 km/h 11.3 km/h 79 % 0 mm 149 W/m2
14:16 7.8 °C 4.2 °C 992.4 hPa WSW 9.7 km/h 14.5 km/h 78 % 0 mm 162 W/m2
14:19 7.8 °C 4.2 °C 992.4 hPa WSW 9.7 km/h 20.9 km/h 78 % 0 mm 155 W/m2
14:21 7.8 °C 4 °C 992.4 hPa WSW 14.5 km/h 24.1 km/h 77 % 0 mm 160 W/m2
14:24 7.8 °C 4 °C 992.4 hPa WSW 11.3 km/h 20.9 km/h 77 % 0 mm 160 W/m2
14:29 7.7 °C 3.9 °C 992.4 hPa WSW 14.5 km/h 22.5 km/h 77 % 0 mm 155 W/m2
14:31 7.7 °C 3.9 °C 992.4 hPa WSW 12.9 km/h 22.5 km/h 77 % 0 mm 146 W/m2
14:36 7.6 °C 3.8 °C 992.4 hPa SW 12.9 km/h 17.7 km/h 77 % 0 mm 40 W/m2
14:39 7.5 °C 3.7 °C 992.4 hPa SW 14.5 km/h 22.5 km/h 77 % 0 mm 32 W/m2
14:44 7.3 °C 3.7 °C 992.4 hPa SW 12.9 km/h 20.9 km/h 78 % 0 mm 19 W/m2
14:45 7.2 °C 3.6 °C 992.4 hPa WSW 12.9 km/h 20.9 km/h 78 % 0 mm 16 W/m2
14:47 7.2 °C 3.8 °C 992.4 hPa WSW 16.1 km/h 20.9 km/h 79 % 0 mm 14 W/m2
14:52 7.1 °C 3.9 °C 992.8 hPa West 12.9 km/h 22.5 km/h 80 % 0 mm 26 W/m2
14:54 7 °C 3.9 °C 992.8 hPa WSW 16.1 km/h 29 km/h 81 % 0 mm 44 W/m2
14:59 6.8 °C 3.9 °C 992.4 hPa SW 17.7 km/h 29 km/h 82 % 0 mm 19 W/m2
15:00 6.7 °C 3.8 °C 992.4 hPa SW 19.3 km/h 29 km/h 82 % 0 mm 19 W/m2
15:05 6.6 °C 3.9 °C 992.4 hPa SW 16.1 km/h 20.9 km/h 83 % 0 mm 60 W/m2
15:10 6.4 °C 3.9 °C 992.4 hPa SW 12.9 km/h 25.7 km/h 84 % 0 mm 18 W/m2
15:12 6.4 °C 4.1 °C 992.4 hPa SW 16.1 km/h 25.7 km/h 85 % 0 mm 23 W/m2
15:13 6.4 °C 4.1 °C 992.4 hPa SW 14.5 km/h 22.5 km/h 85 % 0 mm 16 W/m2
15:18 6.2 °C 3.9 °C 992.4 hPa SW 14.5 km/h 17.7 km/h 85 % 0 mm 30 W/m2
15:19 6.2 °C 3.9 °C 992.4 hPa SW 12.9 km/h 17.7 km/h 85 % 0 mm 18 W/m2
15:20 6.2 °C 3.9 °C 992.4 hPa SW 12.9 km/h 19.3 km/h 85 % 0 mm 14 W/m2
15:25 6.2 °C 4.1 °C 992.4 hPa SW 14.5 km/h 22.5 km/h 86 % 0 mm 11 W/m2
15:30 6.1 °C 3.9 °C 992.4 hPa WSW 11.3 km/h 19.3 km/h 86 % 0 mm 9 W/m2
15:31 6.1 °C 3.9 °C 992.4 hPa SW 9.7 km/h 16.1 km/h 86 % 0 mm 9 W/m2
15:33 6.1 °C 3.9 °C 992.4 hPa SW 12.9 km/h 19.3 km/h 86 % 0 mm 9 W/m2
15:38 6.1 °C 4.1 °C 992.4 hPa WSW 14.5 km/h 22.5 km/h 87 % 0 mm 9 W/m2
15:41 6.1 °C 4.1 °C 992.4 hPa WSW 14.5 km/h 24.1 km/h 87 % 0 mm 5 W/m2
15:42 6.1 °C 4.1 °C 992.4 hPa WSW 14.5 km/h 24.1 km/h 87 % 0 mm 5 W/m2
15:48 6.2 °C 4.2 °C 992.8 hPa WSW 16.1 km/h 22.5 km/h 87 % 0 mm 0 W/m2
15:50 6.2 °C 4.2 °C 992.8 hPa WSW 11.3 km/h 19.3 km/h 87 % 0 mm 0 W/m2
15:55 6.3 °C 4.1 °C 992.8 hPa WSW 19.3 km/h 32.2 km/h 86 % 0 mm 0 W/m2
15:57 6.2 °C 4.1 °C 992.8 hPa WSW 16.1 km/h 24.1 km/h 86 % 0 mm 0 W/m2
16:01 6.2 °C 4.1 °C 992.4 hPa WSW 11.3 km/h 19.3 km/h 86 % 0 mm 0 W/m2
16:04 6.2 °C 4.1 °C 992.4 hPa WSW 14.5 km/h 25.7 km/h 86 % 0 mm 0 W/m2
16:09 6.1 °C 3.9 °C 992.4 hPa WSW 9.7 km/h 17.7 km/h 86 % 0 mm 0 W/m2
16:14 6.1 °C 3.9 °C 992.8 hPa WSW 12.9 km/h 22.5 km/h 86 % 0 mm 0 W/m2
16:15 6.1 °C 3.9 °C 992.8 hPa SW 14.5 km/h 22.5 km/h 86 % 0.25 mm 0 W/m2
16:18 6.1 °C 4.1 °C 992.8 hPa West 14.5 km/h 25.7 km/h 87 % 0.25 mm 0 W/m2
16:23 6.2 °C 4.2 °C 992.4 hPa WSW 16.1 km/h 25.7 km/h 87 % 0.25 mm 0 W/m2
16:25 6.1 °C 4.1 °C 992.8 hPa WSW 19.3 km/h 32.2 km/h 87 % 0.25 mm 0 W/m2
16:30 6 °C 4.2 °C 992.8 hPa West 14.5 km/h 29 km/h 88 % 0.51 mm 0 W/m2
16:31 5.9 °C 4.1 °C 992.8 hPa West 17.7 km/h 29 km/h 88 % 0.51 mm 0 W/m2
16:32 5.9 °C 4.1 °C 992.8 hPa West 16.1 km/h 29 km/h 88 % 0.51 mm 0 W/m2
16:37 5.8 °C 4.1 °C 992.8 hPa WSW 14.5 km/h 19.3 km/h 89 % 0.76 mm 0 W/m2
16:38 5.8 °C 4.1 °C 992.8 hPa WSW 12.9 km/h 19.3 km/h 89 % 0.76 mm 0 W/m2
16:43 5.7 °C 4.2 °C 993.1 hPa WSW 16.1 km/h 24.1 km/h 90 % 1.02 mm 0 W/m2
16:45 5.7 °C 4.2 °C 992.8 hPa West 17.7 km/h 32.2 km/h 90 % 1.27 mm 0 W/m2
16:50 5.6 °C 4.1 °C 992.8 hPa West 16.1 km/h 24.1 km/h 90 % 1.52 mm 0 W/m2
16:51 5.6 °C 4.1 °C 992.8 hPa West 12.9 km/h 17.7 km/h 90 % 1.52 mm 0 W/m2
16:55 5.5 °C 4 °C 992.8 hPa West 9.7 km/h 16.1 km/h 90 % 1.52 mm 0 W/m2
16:59 5.4 °C 4.1 °C 992.8 hPa West 8 km/h 12.9 km/h 91 % 1.78 mm 0 W/m2
17:00 5.4 °C 4.1 °C 992.8 hPa West 8 km/h 11.3 km/h 91 % 1.78 mm 0 W/m2
17:05 5.4 °C 4.1 °C 992.8 hPa West 8 km/h 17.7 km/h 91 % 1.78 mm 0 W/m2
17:07 5.4 °C 4.1 °C 992.8 hPa West 11.3 km/h 17.7 km/h 91 % 1.78 mm 0 W/m2
17:11 5.4 °C 4.2 °C 992.8 hPa WNW 6.4 km/h 16.1 km/h 92 % 1.78 mm 0 W/m2
17:16 5.4 °C 4.2 °C 992.8 hPa WNW 12.9 km/h 20.9 km/h 92 % 1.52 mm 0 W/m2
17:17 5.4 °C 4.2 °C 993.1 hPa WNW 12.9 km/h 20.9 km/h 92 % 1.52 mm 0 W/m2
17:18 5.5 °C 4.3 °C 993.1 hPa WNW 12.9 km/h 20.9 km/h 92 % 1.52 mm 0 W/m2
17:23 5.6 °C 4.6 °C 993.1 hPa WNW 17.7 km/h 40.2 km/h 93 % 1.52 mm 0 W/m2
17:28 5.8 °C 4.8 °C 993.5 hPa WNW 20.9 km/h 35.4 km/h 93 % 1.52 mm 0 W/m2
17:33 5.8 °C 4.8 °C 993.8 hPa WNW 22.5 km/h 37 km/h 93 % 1.27 mm 0 W/m2
17:37 5.8 °C 4.8 °C 993.8 hPa WNW 22.5 km/h 35.4 km/h 93 % 1.02 mm 0 W/m2
17:42 5.8 °C 4.8 °C 994.1 hPa WNW 16.1 km/h 33.8 km/h 93 % 0.76 mm 0 W/m2
17:47 5.8 °C 4.8 °C 994.5 hPa WNW 22.5 km/h 33.8 km/h 93 % 0.51 mm 0 W/m2
17:51 5.8 °C 4.8 °C 994.5 hPa WNW 16.1 km/h 30.6 km/h 93 % 0.51 mm 0 W/m2
17:53 5.8 °C 4.8 °C 994.8 hPa NW 19.3 km/h 30.6 km/h 93 % 0.25 mm 0 W/m2
17:58 5.8 °C 4.6 °C 994.8 hPa WNW 19.3 km/h 38.6 km/h 92 % 0 mm 0 W/m2
18:03 5.8 °C 4.6 °C 995.1 hPa WNW 20.9 km/h 37 km/h 92 % 0 mm 0 W/m2
18:05 5.8 °C 4.6 °C 995.1 hPa NW 22.5 km/h 35.4 km/h 92 % 0 mm 0 W/m2
18:07 5.8 °C 4.6 °C 995.1 hPa WNW 24.1 km/h 41.8 km/h 92 % 0 mm 0 W/m2
18:12 5.8 °C 4.6 °C 995.1 hPa WNW 19.3 km/h 32.2 km/h 92 % 0 mm 0 W/m2
18:17 5.8 °C 4.4 °C 995.5 hPa WNW 19.3 km/h 32.2 km/h 91 % 0 mm 0 W/m2
18:18 5.8 °C 4.4 °C 995.5 hPa WNW 17.7 km/h 29 km/h 91 % 0 mm 0 W/m2
18:23 5.8 °C 4.4 °C 995.8 hPa WNW 22.5 km/h 38.6 km/h 91 % 0 mm 0 W/m2
18:28 5.8 °C 4.6 °C 996.2 hPa WNW 22.5 km/h 43.5 km/h 92 % 0 mm 0 W/m2
18:33 5.9 °C 4.6 °C 996.2 hPa WNW 19.3 km/h 35.4 km/h 91 % 0 mm 0 W/m2
18:34 5.9 °C 4.6 °C 996.2 hPa WNW 17.7 km/h 33.8 km/h 91 % 0 mm 0 W/m2
18:39 5.9 °C 4.6 °C 996.5 hPa NW 17.7 km/h 32.2 km/h 91 % 0 mm 0 W/m2
18:44 6 °C 4.7 °C 996.5 hPa WNW 19.3 km/h 32.2 km/h 91 % 0 mm 0 W/m2
18:49 6 °C 4.7 °C 996.8 hPa WNW 20.9 km/h 33.8 km/h 91 % 0 mm 0 W/m2
18:54 6 °C 4.5 °C 997.2 hPa WNW 22.5 km/h 35.4 km/h 90 % 0 mm 0 W/m2
18:59 6 °C 4.5 °C 997.5 hPa WNW 19.3 km/h 29 km/h 90 % 0 mm 0 W/m2
19:00 6.1 °C 4.6 °C 997.5 hPa WNW 19.3 km/h 29 km/h 90 % 0 mm 0 W/m2
19:05 6 °C 4.5 °C 997.5 hPa WNW 17.7 km/h 29 km/h 90 % 0 mm 0 W/m2
19:07 6.1 °C 4.6 °C 997.9 hPa WNW 17.7 km/h 32.2 km/h 90 % 0 mm 0 W/m2
19:10 6.1 °C 4.6 °C 997.9 hPa NW 20.9 km/h 37 km/h 90 % 0 mm 0 W/m2
19:14 6.1 °C 4.6 °C 997.9 hPa WNW 19.3 km/h 30.6 km/h 90 % 0 mm 0 W/m2
19:19 6.1 °C 4.6 °C 998.2 hPa WNW 16.1 km/h 30.6 km/h 90 % 0 mm 0 W/m2
19:21 6.1 °C 4.6 °C 998.2 hPa NW 14.5 km/h 32.2 km/h 90 % 0 mm 0 W/m2
19:26 6.1 °C 4.6 °C 998.5 hPa WNW 17.7 km/h 32.2 km/h 90 % 0 mm 0 W/m2
19:28 6.1 °C 4.6 °C 998.5 hPa WNW 17.7 km/h 25.7 km/h 90 % 0 mm 0 W/m2
19:33 6.1 °C 4.4 °C 998.9 hPa WNW 17.7 km/h 32.2 km/h 89 % 0 mm 0 W/m2
19:34 6.1 °C 4.4 °C 998.9 hPa WNW 17.7 km/h 29 km/h 89 % 0 mm 0 W/m2
19:35 6 °C 4.3 °C 998.9 hPa WNW 16.1 km/h 24.1 km/h 89 % 0 mm 0 W/m2
19:40 5.9 °C 4.2 °C 998.9 hPa WNW 17.7 km/h 32.2 km/h 89 % 0 mm 0 W/m2
19:44 5.9 °C 4.2 °C 999.2 hPa NW 14.5 km/h 20.9 km/h 89 % 0 mm 0 W/m2
19:47 5.8 °C 4.1 °C 999.2 hPa NW 16.1 km/h 25.7 km/h 89 % 0 mm 0 W/m2
19:52 5.8 °C 4.1 °C 999.2 hPa WNW 17.7 km/h 33.8 km/h 89 % 0 mm 0 W/m2
19:57 5.8 °C 4.1 °C 999.2 hPa WNW 16.1 km/h 22.5 km/h 89 % 0 mm 0 W/m2
20:00 5.8 °C 4.1 °C 999.5 hPa WNW 22.5 km/h 40.2 km/h 89 % 0 mm 0 W/m2
20:02 5.9 °C 4.2 °C 999.5 hPa WNW 22.5 km/h 40.2 km/h 89 % 0 mm 0 W/m2
20:07 5.9 °C 4.2 °C 999.5 hPa WNW 25.7 km/h 38.6 km/h 89 % 0 mm 0 W/m2
20:08 5.9 °C 4.2 °C 999.5 hPa WNW 24.1 km/h 37 km/h 89 % 0 mm 0 W/m2
20:13 5.9 °C 4.2 °C 999.9 hPa WNW 24.1 km/h 40.2 km/h 89 % 0 mm 0 W/m2
20:18 5.9 °C 4.1 °C 999.9 hPa WNW 22.5 km/h 41.8 km/h 88 % 0 mm 0 W/m2
20:19 5.9 °C 4.1 °C 999.9 hPa WNW 22.5 km/h 41.8 km/h 88 % 0 mm 0 W/m2
20:24 5.8 °C 3.9 °C 999.9 hPa WNW 22.5 km/h 38.6 km/h 88 % 0 mm 0 W/m2
20:29 5.8 °C 3.9 °C 1000.2 hPa WNW 24.1 km/h 40.2 km/h 88 % 0 mm 0 W/m2
20:33 5.7 °C 3.9 °C 1000.2 hPa WNW 27.4 km/h 40.2 km/h 88 % 0 mm 0 W/m2
20:34 5.7 °C 3.7 °C 1000.2 hPa WNW 27.4 km/h 45.1 km/h 87 % 0 mm 0 W/m2
20:39 5.6 °C 3.6 °C 1000.6 hPa WNW 30.6 km/h 43.5 km/h 87 % 0 mm 0 W/m2
20:40 5.6 °C 3.6 °C 1000.6 hPa WNW 29 km/h 43.5 km/h 87 % 0 mm 0 W/m2
20:45 5.6 °C 3.6 °C 1000.6 hPa WNW 27.4 km/h 45.1 km/h 87 % 0 mm 0 W/m2
20:46 5.6 °C 3.6 °C 1000.6 hPa WNW 25.7 km/h 45.1 km/h 87 % 0 mm 0 W/m2
20:50 5.4 °C 3.4 °C 1000.9 hPa WNW 17.7 km/h 35.4 km/h 87 % 0 mm 0 W/m2
20:51 5.4 °C 3.4 °C 1000.9 hPa WNW 17.7 km/h 32.2 km/h 87 % 0 mm 0 W/m2
20:56 5.3 °C 3.3 °C 1000.9 hPa WNW 17.7 km/h 30.6 km/h 87 % 0 mm 0 W/m2
21:01 5.3 °C 3.3 °C 1000.9 hPa WNW 20.9 km/h 35.4 km/h 87 % 0 mm 0 W/m2
21:03 5.2 °C 3.2 °C 1000.9 hPa WNW 22.5 km/h 38.6 km/h 87 % 0 mm 0 W/m2
21:06 5.2 °C 3.2 °C 1000.9 hPa WNW 17.7 km/h 29 km/h 87 % 0 mm 0 W/m2
21:11 5.2 °C 3.1 °C 1000.9 hPa WNW 22.5 km/h 33.8 km/h 86 % 0 mm 0 W/m2
21:12 5.2 °C 3.1 °C 1001.2 hPa WNW 19.3 km/h 32.2 km/h 86 % 0 mm 0 W/m2
21:16 5.1 °C 2.9 °C 1001.2 hPa WNW 22.5 km/h 33.8 km/h 86 % 0 mm 0 W/m2
21:19 5.1 °C 2.9 °C 1001.2 hPa WNW 25.7 km/h 37 km/h 86 % 0 mm 0 W/m2
21:20 5.1 °C 2.9 °C 1001.2 hPa WNW 25.7 km/h 37 km/h 86 % 0 mm 0 W/m2
21:25 5.2 °C 2.9 °C 1001.2 hPa WNW 20.9 km/h 33.8 km/h 85 % 0 mm 0 W/m2
21:26 5.2 °C 2.9 °C 1001.2 hPa WNW 19.3 km/h 32.2 km/h 85 % 0 mm 0 W/m2
21:31 5.2 °C 2.9 °C 1001.6 hPa WNW 25.7 km/h 41.8 km/h 85 % 0 mm 0 W/m2
21:32 5.2 °C 2.9 °C 1001.6 hPa WNW 27.4 km/h 41.8 km/h 85 % 0 mm 0 W/m2
21:37 5.2 °C 2.7 °C 1001.6 hPa WNW 20.9 km/h 30.6 km/h 84 % 0 mm 0 W/m2
21:38 5.2 °C 2.9 °C 1001.6 hPa WNW 20.9 km/h 32.2 km/h 85 % 0 mm 0 W/m2
21:43 5.3 °C 3 °C 1001.9 hPa WNW 29 km/h 43.5 km/h 85 % 0 mm 0 W/m2
21:44 5.3 °C 3 °C 1001.9 hPa WNW 29 km/h 43.5 km/h 85 % 0 mm 0 W/m2
21:49 5.4 °C 3.1 °C 1001.9 hPa WNW 24.1 km/h 37 km/h 85 % 0 mm 0 W/m2
21:50 5.4 °C 3.1 °C 1001.9 hPa West 24.1 km/h 37 km/h 85 % 0 mm 0 W/m2
21:55 5.4 °C 3.2 °C 1001.9 hPa West 24.1 km/h 33.8 km/h 86 % 0 mm 0 W/m2
21:56 5.4 °C 3.2 °C 1001.9 hPa WNW 24.1 km/h 35.4 km/h 86 % 0 mm 0 W/m2
22:01 5.4 °C 3.2 °C 1002.3 hPa West 27.4 km/h 40.2 km/h 86 % 0 mm 0 W/m2
22:07 5.3 °C 3.2 °C 1002.3 hPa WNW 24.1 km/h 40.2 km/h 86 % 0 mm 0 W/m2
22:08 5.4 °C 3.2 °C 1002.3 hPa WNW 25.7 km/h 40.2 km/h 86 % 0 mm 0 W/m2
22:10 5.3 °C 3.2 °C 1002.3 hPa WNW 24.1 km/h 35.4 km/h 86 % 0 mm 0 W/m2
22:14 5.4 °C 3.2 °C 1002.6 hPa WNW 24.1 km/h 32.2 km/h 86 % 0 mm 0 W/m2
22:15 5.4 °C 3.2 °C 1002.6 hPa WNW 22.5 km/h 32.2 km/h 86 % 0 mm 0 W/m2
22:17 5.4 °C 3.2 °C 1002.6 hPa WNW 22.5 km/h 35.4 km/h 86 % 0 mm 0 W/m2
22:21 5.4 °C 3.2 °C 1002.6 hPa WNW 22.5 km/h 35.4 km/h 86 % 0 mm 0 W/m2
22:26 5.4 °C 3.2 °C 1002.9 hPa WNW 24.1 km/h 37 km/h 86 % 0 mm 0 W/m2
22:27 5.4 °C 3.2 °C 1002.9 hPa WNW 22.5 km/h 37 km/h 86 % 0 mm 0 W/m2
22:32 5.4 °C 3.2 °C 1002.9 hPa West 24.1 km/h 37 km/h 86 % 0 mm 0 W/m2
22:34 5.4 °C 3.2 °C 1002.9 hPa West 24.1 km/h 37 km/h 86 % 0 mm 0 W/m2
22:39 5.4 °C 3.2 °C 1003.3 hPa West 20.9 km/h 38.6 km/h 86 % 0 mm 0 W/m2
22:44 5.4 °C 3.2 °C 1003.6 hPa WNW 24.1 km/h 41.8 km/h 86 % 0 mm 0 W/m2
22:45 5.4 °C 3.2 °C 1003.6 hPa WNW 20.9 km/h 33.8 km/h 86 % 0 mm 0 W/m2
22:50 5.4 °C 3.4 °C 1003.6 hPa WNW 20.9 km/h 30.6 km/h 87 % 0 mm 0 W/m2
22:53 5.4 °C 3.4 °C 1003.9 hPa WNW 20.9 km/h 30.6 km/h 87 % 0 mm 0 W/m2
22:57 5.5 °C 3.5 °C 1003.9 hPa WNW 17.7 km/h 30.6 km/h 87 % 0 mm 0 W/m2
23:01 5.6 °C 3.6 °C 1003.9 hPa WNW 19.3 km/h 30.6 km/h 87 % 0 mm 0 W/m2
23:06 5.6 °C 3.6 °C 1004.3 hPa WNW 17.7 km/h 32.2 km/h 87 % 0 mm 0 W/m2
23:07 5.6 °C 3.6 °C 1004.3 hPa WNW 17.7 km/h 32.2 km/h 87 % 0 mm 0 W/m2
23:09 5.6 °C 3.6 °C 1004.3 hPa WNW 14.5 km/h 25.7 km/h 87 % 0 mm 0 W/m2
23:13 5.6 °C 3.6 °C 1004.3 hPa WNW 22.5 km/h 37 km/h 87 % 0 mm 0 W/m2
23:18 5.7 °C 3.6 °C 1004.3 hPa WNW 20.9 km/h 37 km/h 86 % 0 mm 0 W/m2
23:20 5.8 °C 3.6 °C 1004.3 hPa WNW 24.1 km/h 40.2 km/h 86 % 0 mm 0 W/m2
23:25 5.8 °C 3.6 °C 1004.3 hPa WNW 27.4 km/h 43.5 km/h 86 % 0 mm 0 W/m2
23:28 5.8 °C 3.4 °C 1004.6 hPa WNW 30.6 km/h 43.5 km/h 85 % 0 mm 0 W/m2
23:31 5.9 °C 3.6 °C 1004.6 hPa WNW 22.5 km/h 37 km/h 85 % 0 mm 0 W/m2
23:35 5.9 °C 3.6 °C 1004.6 hPa WNW 19.3 km/h 37 km/h 85 % 0 mm 0 W/m2
23:38 5.9 °C 3.6 °C 1004.6 hPa West 19.3 km/h 32.2 km/h 85 % 0 mm 0 W/m2
23:41 5.9 °C 3.6 °C 1004.6 hPa WNW 20.9 km/h 33.8 km/h 85 % 0 mm 0 W/m2
23:46 5.9 °C 3.6 °C 1005 hPa WNW 19.3 km/h 38.6 km/h 85 % 0 mm 0 W/m2
23:51 5.9 °C 3.6 °C 1005 hPa WNW 19.3 km/h 32.2 km/h 85 % 0 mm 0 W/m2
23:53 6 °C 3.7 °C 1005 hPa WNW 24.1 km/h 37 km/h 85 % 0 mm 0 W/m2
23:56 6 °C 3.7 °C 1004.6 hPa WNW 17.7 km/h 33.8 km/h 85 % 0 mm 0 W/m2
Delerius-Weather
Compliments of Weather Underground - 3 mb

Data updates at regular intervals.